Davisburg, Kentucky
Current Conditions -  °F | °C
As of 1:55 PM on Sunday 23 Nov 2014 (Local Time) from K1A6 Reporting Station
Overcast Overcast  
Wind Chill: 13°   Ceiling: 7500
Heat Index: 13°   Visibility: 10mi
Dew Point: 11°   Wind: 8mph
Humidity: 83%   Direction: 140°SE
Pressure: 29.82"   Gusts: NA
Location:  36.7417°N, 83.6911°W
Report Text: K1A6 231855Z AUTO 14007KT 100V190 10SM SCT019 BKN075 OVC090 13/11 A2982 RMK AO2 P0003 T01340105
Loading
Personal Weather Stations






























Interactive Weather Map New forecast layout! Learn more

10-Day Weather Forecast

Advertisements
Track Severe Weather on mobile